sensor_id;sensor_type;location;lat;lon;timestamp;P1;durP1;ratioP1;P2;durP2;ratioP2
52136;SDS011;38130;49.012;8.368;2022-08-19T00:01:32;17.48;;;15.68;;
52136;SDS011;38130;49.012;8.368;2022-08-19T00:04:04;18.40;;;16.35;;
52136;SDS011;38130;49.012;8.368;2022-08-19T00:06:32;18.25;;;16.35;;
52136;SDS011;38130;49.012;8.368;2022-08-19T00:09:00;19.05;;;16.58;;
52136;SDS011;38130;49.012;8.368;2022-08-19T00:11:27;19.00;;;17.08;;
52136;SDS011;38130;49.012;8.368;2022-08-19T00:13:54;19.30;;;16.88;;
52136;SDS011;38130;49.012;8.368;2022-08-19T00:16:23;19.63;;;17.52;;
52136;SDS011;38130;49.012;8.368;2022-08-19T00:18:52;20.98;;;16.85;;
52136;SDS011;38130;49.012;8.368;2022-08-19T00:21:19;20.10;;;17.63;;
52136;SDS011;38130;49.012;8.368;2022-08-19T00:23:46;20.48;;;18.33;;
52136;SDS011;38130;49.012;8.368;2022-08-19T00:26:13;19.85;;;16.92;;
52136;SDS011;38130;49.012;8.368;2022-08-19T00:28:39;21.08;;;17.98;;
52136;SDS011;38130;49.012;8.368;2022-08-19T00:31:06;21.00;;;18.52;;
52136;SDS011;38130;49.012;8.368;2022-08-19T00:33:33;18.58;;;16.67;;
52136;SDS011;38130;49.012;8.368;2022-08-19T00:36:00;20.95;;;17.15;;
52136;SDS011;38130;49.012;8.368;2022-08-19T00:38:30;24.85;;;20.85;;
52136;SDS011;38130;49.012;8.368;2022-08-19T00:41:03;19.50;;;16.63;;
52136;SDS011;38130;49.012;8.368;2022-08-19T00:43:31;18.35;;;16.30;;
52136;SDS011;38130;49.012;8.368;2022-08-19T00:45:58;18.98;;;17.02;;
52136;SDS011;38130;49.012;8.368;2022-08-19T00:48:24;18.90;;;16.92;;
52136;SDS011;38130;49.012;8.368;2022-08-19T00:50:51;19.75;;;16.90;;
52136;SDS011;38130;49.012;8.368;2022-08-19T00:53:23;18.63;;;16.42;;
52136;SDS011;38130;49.012;8.368;2022-08-19T00:55:52;18.75;;;16.85;;
52136;SDS011;38130;49.012;8.368;2022-08-19T00:58:22;19.55;;;17.48;;
52136;SDS011;38130;49.012;8.368;2022-08-19T01:00:53;24.92;;;16.98;;
52136;SDS011;38130;49.012;8.368;2022-08-19T01:03:20;18.85;;;16.85;;
52136;SDS011;38130;49.012;8.368;2022-08-19T01:05:50;20.83;;;17.67;;
52136;SDS011;38130;49.012;8.368;2022-08-19T01:08:18;18.63;;;16.70;;
52136;SDS011;38130;49.012;8.368;2022-08-19T01:10:48;20.33;;;17.60;;
52136;SDS011;38130;49.012;8.368;2022-08-19T01:13:19;19.90;;;17.70;;
52136;SDS011;38130;49.012;8.368;2022-08-19T01:15:52;19.65;;;16.60;;
52136;SDS011;38130;49.012;8.368;2022-08-19T01:18:23;19.98;;;16.88;;
52136;SDS011;38130;49.012;8.368;2022-08-19T01:20:53;19.02;;;17.23;;
52136;SDS011;38130;49.012;8.368;2022-08-19T01:23:22;18.60;;;16.80;;
52136;SDS011;38130;49.012;8.368;2022-08-19T01:26:12;20.67;;;18.60;;
52136;SDS011;38130;49.012;8.368;2022-08-19T01:28:41;20.30;;;18.27;;
52136;SDS011;38130;49.012;8.368;2022-08-19T01:31:16;20.63;;;18.52;;
52136;SDS011;38130;49.012;8.368;2022-08-19T01:33:53;21.83;;;18.42;;
52136;SDS011;38130;49.012;8.368;2022-08-19T01:36:23;20.83;;;18.65;;
52136;SDS011;38130;49.012;8.368;2022-08-19T01:38:56;21.42;;;19.08;;
52136;SDS011;38130;49.012;8.368;2022-08-19T01:41:24;21.08;;;18.90;;
52136;SDS011;38130;49.012;8.368;2022-08-19T01:43:51;21.90;;;19.60;;
52136;SDS011;38130;49.012;8.368;2022-08-19T01:46:38;23.33;;;21.00;;
52136;SDS011;38130;49.012;8.368;2022-08-19T01:49:05;24.27;;;21.63;;
52136;SDS011;38130;49.012;8.368;2022-08-19T01:51:33;22.80;;;20.48;;
52136;SDS011;38130;49.012;8.368;2022-08-19T01:54:05;23.10;;;20.70;;
52136;SDS011;38130;49.012;8.368;2022-08-19T01:56:32;23.15;;;20.75;;
52136;SDS011;38130;49.012;8.368;2022-08-19T01:59:00;24.40;;;20.90;;
52136;SDS011;38130;49.012;8.368;2022-08-19T02:01:29;24.88;;;22.27;;
52136;SDS011;38130;49.012;8.368;2022-08-19T02:03:58;22.58;;;20.23;;
52136;SDS011;38130;49.012;8.368;2022-08-19T02:06:27;24.05;;;21.50;;
52136;SDS011;38130;49.012;8.368;2022-08-19T02:08:54;23.65;;;21.15;;
52136;SDS011;38130;49.012;8.368;2022-08-19T02:11:29;23.27;;;20.15;;
52136;SDS011;38130;49.012;8.368;2022-08-19T02:14:00;24.10;;;21.65;;
52136;SDS011;38130;49.012;8.368;2022-08-19T02:16:29;25.50;;;20.50;;
52136;SDS011;38130;49.012;8.368;2022-08-19T02:18:56;25.58;;;22.98;;
52136;SDS011;38130;49.012;8.368;2022-08-19T02:21:26;25.55;;;21.63;;
52136;SDS011;38130;49.012;8.368;2022-08-19T02:23:53;24.80;;;22.25;;
52136;SDS011;38130;49.012;8.368;2022-08-19T02:26:20;24.17;;;21.67;;
52136;SDS011;38130;49.012;8.368;2022-08-19T02:28:47;27.48;;;23.52;;
52136;SDS011;38130;49.012;8.368;2022-08-19T02:31:16;25.73;;;23.08;;
52136;SDS011;38130;49.012;8.368;2022-08-19T02:33:44;27.58;;;23.27;;
52136;SDS011;38130;49.012;8.368;2022-08-19T02:36:11;24.30;;;21.75;;
52136;SDS011;38130;49.012;8.368;2022-08-19T02:38:40;27.73;;;24.45;;
52136;SDS011;38130;49.012;8.368;2022-08-19T02:41:16;26.45;;;22.80;;
52136;SDS011;38130;49.012;8.368;2022-08-19T02:43:46;26.42;;;23.60;;
52136;SDS011;38130;49.012;8.368;2022-08-19T02:46:33;24.92;;;22.52;;
52136;SDS011;38130;49.012;8.368;2022-08-19T02:49:00;25.83;;;23.13;;
52136;SDS011;38130;49.012;8.368;2022-08-19T02:51:38;26.45;;;23.65;;
52136;SDS011;38130;49.012;8.368;2022-08-19T02:54:07;26.88;;;24.13;;
52136;SDS011;38130;49.012;8.368;2022-08-19T02:56:36;29.80;;;23.60;;
52136;SDS011;38130;49.012;8.368;2022-08-19T02:59:04;26.15;;;23.35;;
52136;SDS011;38130;49.012;8.368;2022-08-19T03:01:37;25.23;;;22.63;;
52136;SDS011;38130;49.012;8.368;2022-08-19T03:04:06;26.80;;;23.98;;
52136;SDS011;38130;49.012;8.368;2022-08-19T03:06:41;28.42;;;23.55;;
52136;SDS011;38130;49.012;8.368;2022-08-19T03:09:10;27.38;;;24.48;;
52136;SDS011;38130;49.012;8.368;2022-08-19T03:11:37;29.35;;;26.15;;
52136;SDS011;38130;49.012;8.368;2022-08-19T03:14:05;29.17;;;25.30;;
52136;SDS011;38130;49.012;8.368;2022-08-19T03:16:34;28.10;;;24.67;;
52136;SDS011;38130;49.012;8.368;2022-08-19T03:19:05;29.83;;;26.42;;
52136;SDS011;38130;49.012;8.368;2022-08-19T03:21:32;30.38;;;26.20;;
52136;SDS011;38130;49.012;8.368;2022-08-19T03:24:04;29.27;;;26.15;;
52136;SDS011;38130;49.012;8.368;2022-08-19T03:26:32;30.65;;;27.45;;
52136;SDS011;38130;49.012;8.368;2022-08-19T03:29:03;30.27;;;26.98;;
52136;SDS011;38130;49.012;8.368;2022-08-19T03:31:31;31.95;;;27.75;;
52136;SDS011;38130;49.012;8.368;2022-08-19T03:34:10;33.58;;;28.75;;
52136;SDS011;38130;49.012;8.368;2022-08-19T03:36:41;33.05;;;28.42;;
52136;SDS011;38130;49.012;8.368;2022-08-19T03:39:09;30.25;;;26.95;;
52136;SDS011;38130;49.012;8.368;2022-08-19T03:41:36;31.00;;;27.70;;
52136;SDS011;38130;49.012;8.368;2022-08-19T03:44:12;31.67;;;27.50;;
52136;SDS011;38130;49.012;8.368;2022-08-19T03:46:44;34.83;;;29.05;;
52136;SDS011;38130;49.012;8.368;2022-08-19T03:49:11;32.72;;;29.20;;
52136;SDS011;38130;49.012;8.368;2022-08-19T03:51:40;35.28;;;28.60;;
52136;SDS011;38130;49.012;8.368;2022-08-19T03:54:09;33.25;;;29.63;;
52136;SDS011;38130;49.012;8.368;2022-08-19T03:56:37;32.25;;;27.35;;
52136;SDS011;38130;49.012;8.368;2022-08-19T03:59:06;31.27;;;26.35;;
52136;SDS011;38130;49.012;8.368;2022-08-19T04:01:34;29.42;;;26.33;;
52136;SDS011;38130;49.012;8.368;2022-08-19T04:04:01;29.58;;;26.35;;
52136;SDS011;38130;49.012;8.368;2022-08-19T04:06:30;29.42;;;26.33;;
52136;SDS011;38130;49.012;8.368;2022-08-19T04:09:00;33.63;;;28.80;;
52136;SDS011;38130;49.012;8.368;2022-08-19T04:11:31;30.42;;;27.15;;
52136;SDS011;38130;49.012;8.368;2022-08-19T04:14:11;33.53;;;28.52;;
52136;SDS011;38130;49.012;8.368;2022-08-19T04:16:39;35.05;;;27.80;;
52136;SDS011;38130;49.012;8.368;2022-08-19T04:19:06;32.60;;;28.48;;
52136;SDS011;38130;49.012;8.368;2022-08-19T04:21:33;32.67;;;27.67;;
52136;SDS011;38130;49.012;8.368;2022-08-19T04:24:00;33.58;;;27.30;;
52136;SDS011;38130;49.012;8.368;2022-08-19T04:26:30;31.10;;;27.50;;
52136;SDS011;38130;49.012;8.368;2022-08-19T04:29:00;29.40;;;26.25;;
52136;SDS011;38130;49.012;8.368;2022-08-19T04:31:33;31.67;;;25.95;;
52136;SDS011;38130;49.012;8.368;2022-08-19T04:34:04;32.47;;;26.88;;
52136;SDS011;38130;49.012;8.368;2022-08-19T04:36:34;29.85;;;26.45;;
52136;SDS011;38130;49.012;8.368;2022-08-19T04:39:03;31.70;;;26.88;;
52136;SDS011;38130;49.012;8.368;2022-08-19T04:41:34;33.40;;;26.25;;
52136;SDS011;38130;49.012;8.368;2022-08-19T04:44:36;30.13;;;25.63;;
52136;SDS011;38130;49.012;8.368;2022-08-19T04:47:11;29.83;;;25.17;;
52136;SDS011;38130;49.012;8.368;2022-08-19T04:49:37;27.70;;;24.70;;
52136;SDS011;38130;49.012;8.368;2022-08-19T04:52:04;29.70;;;26.60;;
52136;SDS011;38130;49.012;8.368;2022-08-19T04:54:30;30.05;;;26.70;;
52136;SDS011;38130;49.012;8.368;2022-08-19T04:57:04;26.37;;;23.27;;
52136;SDS011;38130;49.012;8.368;2022-08-19T04:59:33;27.58;;;24.52;;
52136;SDS011;38130;49.012;8.368;2022-08-19T05:01:59;29.63;;;25.45;;
52136;SDS011;38130;49.012;8.368;2022-08-19T05:04:26;27.70;;;24.83;;
52136;SDS011;38130;49.012;8.368;2022-08-19T05:06:54;34.65;;;26.38;;
52136;SDS011;38130;49.012;8.368;2022-08-19T05:09:26;27.65;;;24.77;;
52136;SDS011;38130;49.012;8.368;2022-08-19T05:12:13;26.95;;;23.75;;
52136;SDS011;38130;49.012;8.368;2022-08-19T05:14:40;28.00;;;24.23;;
52136;SDS011;38130;49.012;8.368;2022-08-19T05:17:07;27.48;;;23.95;;
52136;SDS011;38130;49.012;8.368;2022-08-19T05:19:53;30.20;;;24.80;;
52136;SDS011;38130;49.012;8.368;2022-08-19T05:22:38;28.40;;;25.15;;
52136;SDS011;38130;49.012;8.368;2022-08-19T05:25:07;26.52;;;23.73;;
52136;SDS011;38130;49.012;8.368;2022-08-19T05:27:38;26.03;;;23.43;;
52136;SDS011;38130;49.012;8.368;2022-08-19T05:30:05;27.08;;;24.13;;
52136;SDS011;38130;49.012;8.368;2022-08-19T05:32:32;29.63;;;24.30;;
52136;SDS011;38130;49.012;8.368;2022-08-19T05:34:58;30.95;;;26.08;;
52136;SDS011;38130;49.012;8.368;2022-08-19T05:37:25;26.20;;;23.33;;
52136;SDS011;38130;49.012;8.368;2022-08-19T05:39:53;26.58;;;23.70;;
52136;SDS011;38130;49.012;8.368;2022-08-19T05:42:20;26.13;;;23.17;;
52136;SDS011;38130;49.012;8.368;2022-08-19T05:44:49;28.50;;;23.05;;
52136;SDS011;38130;49.012;8.368;2022-08-19T05:47:16;26.25;;;23.52;;
52136;SDS011;38130;49.012;8.368;2022-08-19T05:49:46;27.13;;;23.20;;
52136;SDS011;38130;49.012;8.368;2022-08-19T05:52:14;28.60;;;24.92;;
52136;SDS011;38130;49.012;8.368;2022-08-19T05:54:44;26.90;;;24.02;;
52136;SDS011;38130;49.012;8.368;2022-08-19T05:57:17;25.58;;;22.15;;
52136;SDS011;38130;49.012;8.368;2022-08-19T05:59:44;27.05;;;22.13;;
52136;SDS011;38130;49.012;8.368;2022-08-19T06:02:14;25.60;;;22.90;;
52136;SDS011;38130;49.012;8.368;2022-08-19T06:04:40;26.40;;;21.50;;
52136;SDS011;38130;49.012;8.368;2022-08-19T06:07:09;26.05;;;23.30;;
52136;SDS011;38130;49.012;8.368;2022-08-19T06:09:38;28.13;;;23.23;;
52136;SDS011;38130;49.012;8.368;2022-08-19T06:12:08;28.38;;;23.65;;
52136;SDS011;38130;49.012;8.368;2022-08-19T06:14:35;23.83;;;21.33;;
52136;SDS011;38130;49.012;8.368;2022-08-19T06:17:06;24.77;;;22.08;;
52136;SDS011;38130;49.012;8.368;2022-08-19T06:19:33;23.90;;;21.38;;
52136;SDS011;38130;49.012;8.368;2022-08-19T06:22:06;25.05;;;20.75;;
52136;SDS011;38130;49.012;8.368;2022-08-19T06:24:33;24.17;;;21.65;;
52136;SDS011;38130;49.012;8.368;2022-08-19T06:27:01;25.17;;;22.52;;
52136;SDS011;38130;49.012;8.368;2022-08-19T06:29:29;26.73;;;22.35;;
52136;SDS011;38130;49.012;8.368;2022-08-19T06:31:57;25.70;;;22.05;;
52136;SDS011;38130;49.012;8.368;2022-08-19T06:34:27;29.02;;;23.30;;
52136;SDS011;38130;49.012;8.368;2022-08-19T06:36:55;24.50;;;21.92;;
52136;SDS011;38130;49.012;8.368;2022-08-19T06:39:24;24.67;;;21.13;;
52136;SDS011;38130;49.012;8.368;2022-08-19T06:41:54;24.73;;;21.50;;
52136;SDS011;38130;49.012;8.368;2022-08-19T06:44:25;22.92;;;20.65;;
52136;SDS011;38130;49.012;8.368;2022-08-19T06:46:53;25.27;;;22.65;;
52136;SDS011;38130;49.012;8.368;2022-08-19T06:49:21;26.13;;;21.48;;
52136;SDS011;38130;49.012;8.368;2022-08-19T06:51:48;23.33;;;20.73;;
52136;SDS011;38130;49.012;8.368;2022-08-19T06:54:17;25.23;;;22.30;;
52136;SDS011;38130;49.012;8.368;2022-08-19T06:56:45;24.33;;;21.42;;
52136;SDS011;38130;49.012;8.368;2022-08-19T06:59:13;23.15;;;20.73;;
52136;SDS011;38130;49.012;8.368;2022-08-19T07:01:44;25.85;;;22.67;;
52136;SDS011;38130;49.012;8.368;2022-08-19T07:04:17;23.08;;;20.70;;
52136;SDS011;38130;49.012;8.368;2022-08-19T07:06:47;25.05;;;21.63;;
52136;SDS011;38130;49.012;8.368;2022-08-19T07:09:20;22.77;;;20.40;;
52136;SDS011;38130;49.012;8.368;2022-08-19T07:11:48;24.30;;;21.20;;
52136;SDS011;38130;49.012;8.368;2022-08-19T07:14:17;21.42;;;19.30;;
52136;SDS011;38130;49.012;8.368;2022-08-19T07:16:46;21.02;;;18.83;;
52136;SDS011;38130;49.012;8.368;2022-08-19T07:19:15;22.52;;;19.70;;
52136;SDS011;38130;49.012;8.368;2022-08-19T07:21:44;22.27;;;19.92;;
52136;SDS011;38130;49.012;8.368;2022-08-19T07:24:12;21.42;;;19.20;;
52136;SDS011;38130;49.012;8.368;2022-08-19T07:26:39;22.10;;;19.27;;
52136;SDS011;38130;49.012;8.368;2022-08-19T07:29:08;20.58;;;18.38;;
52136;SDS011;38130;49.012;8.368;2022-08-19T07:31:36;21.83;;;19.48;;
52136;SDS011;38130;49.012;8.368;2022-08-19T07:34:04;20.67;;;18.52;;
52136;SDS011;38130;49.012;8.368;2022-08-19T07:36:36;21.88;;;19.55;;
52136;SDS011;38130;49.012;8.368;2022-08-19T07:39:17;19.58;;;17.67;;
52136;SDS011;38130;49.012;8.368;2022-08-19T07:41:46;21.10;;;18.95;;
52136;SDS011;38130;49.012;8.368;2022-08-19T07:44:14;21.35;;;18.75;;
52136;SDS011;38130;49.012;8.368;2022-08-19T07:46:43;19.25;;;17.35;;
52136;SDS011;38130;49.012;8.368;2022-08-19T07:49:16;19.00;;;17.08;;
52136;SDS011;38130;49.012;8.368;2022-08-19T07:51:46;20.52;;;17.27;;
52136;SDS011;38130;49.012;8.368;2022-08-19T07:54:15;18.73;;;16.83;;
52136;SDS011;38130;49.012;8.368;2022-08-19T07:56:42;18.42;;;15.35;;
52136;SDS011;38130;49.012;8.368;2022-08-19T07:59:08;17.33;;;15.55;;
52136;SDS011;38130;49.012;8.368;2022-08-19T08:01:35;19.88;;;16.98;;
52136;SDS011;38130;49.012;8.368;2022-08-19T08:04:07;16.58;;;13.55;;
52136;SDS011;38130;49.012;8.368;2022-08-19T08:06:52;17.55;;;15.43;;
52136;SDS011;38130;49.012;8.368;2022-08-19T08:09:38;19.35;;;15.55;;
52136;SDS011;38130;49.012;8.368;2022-08-19T08:12:12;18.25;;;15.07;;
52136;SDS011;38130;49.012;8.368;2022-08-19T08:15:00;16.30;;;14.27;;
52136;SDS011;38130;49.012;8.368;2022-08-19T08:17:33;19.13;;;14.93;;
52136;SDS011;38130;49.012;8.368;2022-08-19T08:20:17;18.83;;;15.20;;
52136;SDS011;38130;49.012;8.368;2022-08-19T08:22:44;15.45;;;13.82;;
52136;SDS011;38130;49.012;8.368;2022-08-19T08:25:30;20.88;;;14.10;;
52136;SDS011;38130;49.012;8.368;2022-08-19T08:27:59;16.25;;;14.55;;
52136;SDS011;38130;49.012;8.368;2022-08-19T08:30:27;15.65;;;14.02;;
52136;SDS011;38130;49.012;8.368;2022-08-19T08:32:58;14.18;;;12.73;;
52136;SDS011;38130;49.012;8.368;2022-08-19T08:35:27;13.88;;;12.48;;
52136;SDS011;38130;49.012;8.368;2022-08-19T08:37:54;13.50;;;12.05;;
52136;SDS011;38130;49.012;8.368;2022-08-19T08:42:58;18.33;;;12.43;;
52136;SDS011;38130;49.012;8.368;2022-08-19T08:45:38;14.98;;;13.02;;
52136;SDS011;38130;49.012;8.368;2022-08-19T08:48:41;14.20;;;11.95;;
52136;SDS011;38130;49.012;8.368;2022-08-19T08:51:22;17.67;;;12.43;;
52136;SDS011;38130;49.012;8.368;2022-08-19T08:54:00;18.48;;;13.93;;
52136;SDS011;38130;49.012;8.368;2022-08-19T08:56:30;13.82;;;10.98;;
52136;SDS011;38130;49.012;8.368;2022-08-19T08:59:03;15.15;;;9.88;;
52136;SDS011;38130;49.012;8.368;2022-08-19T09:01:38;13.13;;;11.13;;
52136;SDS011;38130;49.012;8.368;2022-08-19T09:04:05;14.50;;;9.65;;
52136;SDS011;38130;49.012;8.368;2022-08-19T09:06:47;14.77;;;10.95;;
52136;SDS011;38130;49.012;8.368;2022-08-19T09:09:21;12.75;;;11.02;;
52136;SDS011;38130;49.012;8.368;2022-08-19T09:12:14;33.40;;;18.38;;
52136;SDS011;38130;49.012;8.368;2022-08-19T09:14:57;15.50;;;10.75;;
52136;SDS011;38130;49.012;8.368;2022-08-19T09:17:28;11.60;;;10.50;;
52136;SDS011;38130;49.012;8.368;2022-08-19T09:22:35;18.02;;;12.40;;
52136;SDS011;38130;49.012;8.368;2022-08-19T09:25:04;20.70;;;12.93;;
52136;SDS011;38130;49.012;8.368;2022-08-19T09:27:31;19.00;;;10.65;;
52136;SDS011;38130;49.012;8.368;2022-08-19T09:30:09;11.88;;;8.55;;
52136;SDS011;38130;49.012;8.368;2022-08-19T09:32:39;11.05;;;9.90;;
52136;SDS011;38130;49.012;8.368;2022-08-19T09:35:08;10.13;;;9.13;;
52136;SDS011;38130;49.012;8.368;2022-08-19T09:37:35;15.95;;;10.02;;
52136;SDS011;38130;49.012;8.368;2022-08-19T09:40:03;12.60;;;8.82;;
52136;SDS011;38130;49.012;8.368;2022-08-19T09:42:30;12.65;;;9.98;;
52136;SDS011;38130;49.012;8.368;2022-08-19T09:45:00;21.42;;;9.93;;
52136;SDS011;38130;49.012;8.368;2022-08-19T09:47:30;16.65;;;8.07;;
52136;SDS011;38130;49.012;8.368;2022-08-19T09:49:56;10.05;;;9.05;;
52136;SDS011;38130;49.012;8.368;2022-08-19T09:52:24;9.32;;;8.13;;
52136;SDS011;38130;49.012;8.368;2022-08-19T09:54:58;11.60;;;7.82;;
52136;SDS011;38130;49.012;8.368;2022-08-19T09:57:24;8.20;;;7.43;;
52136;SDS011;38130;49.012;8.368;2022-08-19T09:59:51;9.70;;;7.40;;
52136;SDS011;38130;49.012;8.368;2022-08-19T10:02:17;14.32;;;8.88;;
52136;SDS011;38130;49.012;8.368;2022-08-19T10:04:47;13.77;;;8.88;;
52136;SDS011;38130;49.012;8.368;2022-08-19T10:07:32;7.78;;;7.07;;
52136;SDS011;38130;49.012;8.368;2022-08-19T10:10:03;12.77;;;8.88;;
52136;SDS011;38130;49.012;8.368;2022-08-19T10:12:33;8.25;;;7.50;;
52136;SDS011;38130;49.012;8.368;2022-08-19T10:15:00;11.43;;;9.77;;
52136;SDS011;38130;49.012;8.368;2022-08-19T10:17:27;10.18;;;9.13;;
52136;SDS011;38130;49.012;8.368;2022-08-19T10:19:58;9.55;;;8.55;;
52136;SDS011;38130;49.012;8.368;2022-08-19T10:22:26;9.50;;;7.03;;
52136;SDS011;38130;49.012;8.368;2022-08-19T10:24:52;8.60;;;7.68;;
52136;SDS011;38130;49.012;8.368;2022-08-19T10:27:19;11.13;;;7.30;;
52136;SDS011;38130;49.012;8.368;2022-08-19T10:29:46;8.80;;;7.65;;
52136;SDS011;38130;49.012;8.368;2022-08-19T10:32:14;7.93;;;7.20;;
52136;SDS011;38130;49.012;8.368;2022-08-19T10:34:41;8.70;;;7.30;;
52136;SDS011;38130;49.012;8.368;2022-08-19T10:37:14;9.18;;;7.28;;
52136;SDS011;38130;49.012;8.368;2022-08-19T10:39:54;7.75;;;7.05;;
52136;SDS011;38130;49.012;8.368;2022-08-19T10:42:20;8.38;;;7.57;;
52136;SDS011;38130;49.012;8.368;2022-08-19T10:44:47;8.23;;;7.35;;
52136;SDS011;38130;49.012;8.368;2022-08-19T10:47:17;8.70;;;7.63;;
52136;SDS011;38130;49.012;8.368;2022-08-19T10:49:52;10.82;;;7.57;;
52136;SDS011;38130;49.012;8.368;2022-08-19T10:52:42;8.60;;;7.40;;
52136;SDS011;38130;49.012;8.368;2022-08-19T10:55:15;9.13;;;7.22;;
52136;SDS011;38130;49.012;8.368;2022-08-19T10:58:01;8.65;;;7.32;;
52136;SDS011;38130;49.012;8.368;2022-08-19T11:00:28;10.70;;;8.15;;
52136;SDS011;38130;49.012;8.368;2022-08-19T11:02:56;11.07;;;6.78;;
52136;SDS011;38130;49.012;8.368;2022-08-19T11:05:23;8.98;;;8.18;;
52136;SDS011;38130;49.012;8.368;2022-08-19T11:07:50;11.38;;;8.73;;
52136;SDS011;38130;49.012;8.368;2022-08-19T11:10:18;9.43;;;8.43;;
52136;SDS011;38130;49.012;8.368;2022-08-19T11:12:47;7.68;;;7.05;;
52136;SDS011;38130;49.012;8.368;2022-08-19T11:15:14;10.73;;;7.75;;
52136;SDS011;38130;49.012;8.368;2022-08-19T11:17:41;10.95;;;8.48;;
52136;SDS011;38130;49.012;8.368;2022-08-19T11:20:11;10.50;;;8.20;;
52136;SDS011;38130;49.012;8.368;2022-08-19T11:22:38;9.10;;;8.20;;
52136;SDS011;38130;49.012;8.368;2022-08-19T11:25:08;9.80;;;7.63;;
52136;SDS011;38130;49.012;8.368;2022-08-19T11:27:40;10.02;;;9.13;;
52136;SDS011;38130;49.012;8.368;2022-08-19T11:30:10;8.63;;;7.63;;
52136;SDS011;38130;49.012;8.368;2022-08-19T11:32:40;12.02;;;8.10;;
52136;SDS011;38130;49.012;8.368;2022-08-19T11:35:13;9.50;;;8.35;;
52136;SDS011;38130;49.012;8.368;2022-08-19T11:37:40;9.52;;;8.52;;
52136;SDS011;38130;49.012;8.368;2022-08-19T11:40:06;8.80;;;7.82;;
52136;SDS011;38130;49.012;8.368;2022-08-19T11:42:34;9.07;;;8.20;;
52136;SDS011;38130;49.012;8.368;2022-08-19T11:45:19;8.68;;;7.78;;
52136;SDS011;38130;49.012;8.368;2022-08-19T11:47:45;9.55;;;8.02;;
52136;SDS011;38130;49.012;8.368;2022-08-19T11:50:13;8.80;;;7.93;;
52136;SDS011;38130;49.012;8.368;2022-08-19T11:52:41;10.05;;;7.30;;
52136;SDS011;38130;49.012;8.368;2022-08-19T11:55:08;9.15;;;7.50;;
52136;SDS011;38130;49.012;8.368;2022-08-19T11:57:35;10.35;;;8.50;;
52136;SDS011;38130;49.012;8.368;2022-08-19T12:00:03;8.77;;;7.05;;
52136;SDS011;38130;49.012;8.368;2022-08-19T12:02:32;7.90;;;7.10;;
52136;SDS011;38130;49.012;8.368;2022-08-19T12:04:58;8.63;;;7.82;;
52136;SDS011;38130;49.012;8.368;2022-08-19T12:07:28;9.07;;;8.18;;
52136;SDS011;38130;49.012;8.368;2022-08-19T12:09:57;9.57;;;8.85;;
52136;SDS011;38130;49.012;8.368;2022-08-19T12:12:24;8.77;;;7.85;;
52136;SDS011;38130;49.012;8.368;2022-08-19T12:14:50;9.52;;;8.48;;
52136;SDS011;38130;49.012;8.368;2022-08-19T12:17:23;7.90;;;7.15;;
52136;SDS011;38130;49.012;8.368;2022-08-19T12:19:51;9.13;;;8.07;;
52136;SDS011;38130;49.012;8.368;2022-08-19T12:22:17;8.35;;;7.43;;
52136;SDS011;38130;49.012;8.368;2022-08-19T12:24:44;8.48;;;7.78;;
52136;SDS011;38130;49.012;8.368;2022-08-19T12:27:11;8.88;;;8.05;;
52136;SDS011;38130;49.012;8.368;2022-08-19T12:29:38;9.45;;;8.07;;
52136;SDS011;38130;49.012;8.368;2022-08-19T12:32:04;10.98;;;8.15;;
52136;SDS011;38130;49.012;8.368;2022-08-19T12:34:31;8.52;;;7.72;;
52136;SDS011;38130;49.012;8.368;2022-08-19T12:36:59;10.10;;;8.80;;
52136;SDS011;38130;49.012;8.368;2022-08-19T12:39:27;8.82;;;8.02;;
52136;SDS011;38130;49.012;8.368;2022-08-19T12:41:54;8.55;;;7.78;;
52136;SDS011;38130;49.012;8.368;2022-08-19T12:44:21;10.02;;;8.30;;
52136;SDS011;38130;49.012;8.368;2022-08-19T12:46:54;8.65;;;7.95;;
52136;SDS011;38130;49.012;8.368;2022-08-19T12:49:22;8.10;;;7.38;;
52136;SDS011;38130;49.012;8.368;2022-08-19T12:52:10;9.65;;;7.60;;
52136;SDS011;38130;49.012;8.368;2022-08-19T12:54:41;7.80;;;7.07;;
52136;SDS011;38130;49.012;8.368;2022-08-19T12:57:09;7.95;;;7.22;;
52136;SDS011;38130;49.012;8.368;2022-08-19T12:59:37;7.28;;;6.57;;
52136;SDS011;38130;49.012;8.368;2022-08-19T13:02:04;7.20;;;6.60;;
52136;SDS011;38130;49.012;8.368;2022-08-19T13:04:33;9.68;;;6.90;;
52136;SDS011;38130;49.012;8.368;2022-08-19T13:07:02;8.18;;;6.85;;
52136;SDS011;38130;49.012;8.368;2022-08-19T13:09:29;8.00;;;6.55;;
52136;SDS011;38130;49.012;8.368;2022-08-19T13:11:56;6.95;;;6.45;;
52136;SDS011;38130;49.012;8.368;2022-08-19T13:14:22;6.90;;;6.40;;
52136;SDS011;38130;49.012;8.368;2022-08-19T13:16:52;8.27;;;5.80;;
52136;SDS011;38130;49.012;8.368;2022-08-19T13:19:18;6.57;;;5.50;;
52136;SDS011;38130;49.012;8.368;2022-08-19T13:21:49;5.13;;;4.68;;
52136;SDS011;38130;49.012;8.368;2022-08-19T13:24:25;7.00;;;4.72;;
52136;SDS011;38130;49.012;8.368;2022-08-19T13:26:59;5.20;;;4.80;;
52136;SDS011;38130;49.012;8.368;2022-08-19T13:29:26;4.40;;;4.10;;
52136;SDS011;38130;49.012;8.368;2022-08-19T13:32:12;4.93;;;4.53;;
52136;SDS011;38130;49.012;8.368;2022-08-19T13:34:57;3.88;;;3.47;;
52136;SDS011;38130;49.012;8.368;2022-08-19T13:37:23;4.13;;;3.65;;
52136;SDS011;38130;49.012;8.368;2022-08-19T13:40:18;5.22;;;4.72;;
52136;SDS011;38130;49.012;8.368;2022-08-19T13:42:48;4.88;;;4.38;;
52136;SDS011;38130;49.012;8.368;2022-08-19T13:45:17;3.65;;;3.35;;
52136;SDS011;38130;49.012;8.368;2022-08-19T13:47:49;7.10;;;6.40;;
52136;SDS011;38130;49.012;8.368;2022-08-19T13:50:26;5.00;;;3.95;;
52136;SDS011;38130;49.012;8.368;2022-08-19T13:52:57;4.75;;;4.35;;
52136;SDS011;38130;49.012;8.368;2022-08-19T13:55:24;5.30;;;4.80;;
52136;SDS011;38130;49.012;8.368;2022-08-19T13:57:52;4.07;;;3.70;;
52136;SDS011;38130;49.012;8.368;2022-08-19T14:00:20;5.35;;;4.53;;
52136;SDS011;38130;49.012;8.368;2022-08-19T14:02:51;4.38;;;3.90;;
52136;SDS011;38130;49.012;8.368;2022-08-19T14:05:18;6.97;;;4.72;;
52136;SDS011;38130;49.012;8.368;2022-08-19T14:07:46;6.63;;;4.78;;
52136;SDS011;38130;49.012;8.368;2022-08-19T14:10:14;4.65;;;4.20;;
52136;SDS011;38130;49.012;8.368;2022-08-19T14:12:41;7.57;;;4.88;;
52136;SDS011;38130;49.012;8.368;2022-08-19T14:15:09;5.55;;;4.35;;
52136;SDS011;38130;49.012;8.368;2022-08-19T14:17:38;6.10;;;4.80;;
52136;SDS011;38130;49.012;8.368;2022-08-19T14:20:07;5.57;;;4.72;;
52136;SDS011;38130;49.012;8.368;2022-08-19T14:22:36;4.40;;;4.10;;
52136;SDS011;38130;49.012;8.368;2022-08-19T14:25:05;5.30;;;4.80;;
52136;SDS011;38130;49.012;8.368;2022-08-19T14:27:34;5.10;;;4.63;;
52136;SDS011;38130;49.012;8.368;2022-08-19T14:30:02;4.95;;;4.45;;
52136;SDS011;38130;49.012;8.368;2022-08-19T14:32:30;4.82;;;4.45;;
52136;SDS011;38130;49.012;8.368;2022-08-19T14:34:56;5.53;;;4.72;;
52136;SDS011;38130;49.012;8.368;2022-08-19T14:37:22;4.63;;;4.20;;
52136;SDS011;38130;49.012;8.368;2022-08-19T14:39:50;4.57;;;4.03;;
52136;SDS011;38130;49.012;8.368;2022-08-19T14:42:17;5.65;;;4.88;;
52136;SDS011;38130;49.012;8.368;2022-08-19T14:44:45;4.78;;;4.45;;
52136;SDS011;38130;49.012;8.368;2022-08-19T14:47:11;4.65;;;4.25;;
52136;SDS011;38130;49.012;8.368;2022-08-19T14:49:39;5.43;;;4.10;;
52136;SDS011;38130;49.012;8.368;2022-08-19T14:52:09;7.80;;;4.32;;
52136;SDS011;38130;49.012;8.368;2022-08-19T14:54:36;5.57;;;4.18;;